createdAt,value
2023-04-16T00:00:57.156Z,134.00
2023-04-16T00:01:57.283Z,132.80
2023-04-16T00:02:57.180Z,128.40
2023-04-16T00:03:57.264Z,128.00
2023-04-16T00:04:57.302Z,127.70
2023-04-16T00:05:57.070Z,128.40
2023-04-16T00:06:57.044Z,126.20
2023-04-16T00:07:57.055Z,131.80
2023-04-16T00:08:57.017Z,131.90
2023-04-16T00:09:57.029Z,134.80
2023-04-16T00:10:57.152Z,138.40
2023-04-16T00:11:56.963Z,139.50
2023-04-16T00:12:56.999Z,136.50
2023-04-16T00:13:56.978Z,136.00
2023-04-16T00:14:56.943Z,133.10
2023-04-16T00:15:56.925Z,139.90
2023-04-16T00:16:56.989Z,128.00
2023-04-16T00:17:56.945Z,133.70
2023-04-16T00:18:56.946Z,135.90
2023-04-16T00:19:56.876Z,131.50
2023-04-16T00:20:56.863Z,134.00
2023-04-16T00:21:56.812Z,129.00
2023-04-16T00:22:56.904Z,125.70
2023-04-16T00:23:56.795Z,123.70
2023-04-16T00:24:56.828Z,88.00
2023-04-16T00:25:56.792Z,81.60
2023-04-16T00:26:56.774Z,66.80
2023-04-16T00:27:56.794Z,63.20
2023-04-16T00:28:56.863Z,56.10
2023-04-16T00:29:56.708Z,57.60
2023-04-16T00:30:56.828Z,57.20
2023-04-16T00:31:56.707Z,57.20
2023-04-16T00:32:56.792Z,57.80
2023-04-16T00:33:56.684Z,60.40
2023-04-16T00:34:56.720Z,56.70
2023-04-16T00:35:56.657Z,57.60
2023-04-16T00:36:56.642Z,51.20
2023-04-16T00:37:56.603Z,52.80
2023-04-16T00:38:56.642Z,48.50
2023-04-16T00:39:56.569Z,50.40
2023-04-16T00:40:56.647Z,48.90
2023-04-16T00:41:56.571Z,49.00
2023-04-16T00:42:56.568Z,47.50
2023-04-16T00:43:56.536Z,49.60
2023-04-16T00:44:56.560Z,49.50
2023-04-16T00:45:56.597Z,50.50
2023-04-16T00:46:56.636Z,48.30
2023-04-16T00:47:57.728Z,47.30
2023-04-16T00:48:56.503Z,50.30
2023-04-16T00:49:56.459Z,49.80
2023-04-16T00:50:56.465Z,51.50
2023-04-16T00:51:56.418Z,52.00
2023-04-16T00:52:56.497Z,48.70
2023-04-16T00:53:56.404Z,51.00
2023-04-16T00:54:56.397Z,52.30
2023-04-16T00:55:56.374Z,50.80
2023-04-16T00:56:56.372Z,50.00
2023-04-16T00:57:56.338Z,50.30
2023-04-16T00:58:56.481Z,51.30
2023-04-16T00:59:56.306Z,51.90
2023-04-16T01:00:56.338Z,53.80
2023-04-16T01:01:56.436Z,53.50
2023-04-16T01:02:56.422Z,53.70
2023-04-16T01:03:56.477Z,54.20
2023-04-16T01:04:56.293Z,55.20
2023-04-16T01:05:56.224Z,55.10
2023-04-16T01:06:56.262Z,54.00
2023-04-16T01:07:56.253Z,53.30
2023-04-16T01:08:56.203Z,53.70
2023-04-16T01:09:56.175Z,51.60
2023-04-16T01:10:56.244Z,52.80
2023-04-16T01:11:56.148Z,52.10
2023-04-16T01:12:56.214Z,52.30
2023-04-16T01:13:56.139Z,52.10
2023-04-16T01:14:56.120Z,52.20
2023-04-16T01:15:56.127Z,52.20
2023-04-16T01:16:56.149Z,50.40
2023-04-16T01:17:56.096Z,49.10
2023-04-16T01:18:56.096Z,53.80
2023-04-16T01:19:56.031Z,54.90
2023-04-16T01:20:56.080Z,55.70
2023-04-16T01:21:56.058Z,56.30
2023-04-16T01:22:56.127Z,57.90
2023-04-16T01:23:55.974Z,57.10
2023-04-16T01:24:56.017Z,57.50
2023-04-16T01:25:55.976Z,54.80
2023-04-16T01:26:55.994Z,53.40
2023-04-16T01:27:55.958Z,54.10
2023-04-16T01:28:55.970Z,56.20
2023-04-16T01:29:55.885Z,56.10
2023-04-16T01:30:55.954Z,55.90
2023-04-16T01:31:55.979Z,59.40
2023-04-16T01:32:55.951Z,59.30
2023-04-16T01:33:55.899Z,58.10
2023-04-16T01:34:55.894Z,62.10
2023-04-16T01:35:55.839Z,66.00
2023-04-16T01:36:55.825Z,70.60
2023-04-16T01:37:55.795Z,54.90
2023-04-16T01:38:55.837Z,62.70
2023-04-16T01:39:55.754Z,61.20
2023-04-16T01:40:55.843Z,62.80
2023-04-16T01:41:55.764Z,69.70
2023-04-16T01:42:55.742Z,74.10
2023-04-16T01:43:55.731Z,78.20
2023-04-16T01:44:55.717Z,77.80
2023-04-16T01:45:55.685Z,82.00
2023-04-16T01:46:55.883Z,83.10
2023-04-16T01:47:55.725Z,83.50
2023-04-16T01:48:55.693Z,83.50
2023-04-16T01:49:55.681Z,80.70
2023-04-16T01:50:55.644Z,82.80
2023-04-16T01:51:55.626Z,86.50
2023-04-16T01:52:55.729Z,86.90
2023-04-16T01:53:55.602Z,86.40
2023-04-16T01:54:55.619Z,92.10
2023-04-16T01:55:55.564Z,95.80
2023-04-16T01:56:55.587Z,98.30
2023-04-16T01:57:55.529Z,101.90
2023-04-16T01:58:55.576Z,102.70
2023-04-16T01:59:55.492Z,106.60
2023-04-16T02:00:55.559Z,108.50
2023-04-16T02:01:55.567Z,108.60
2023-04-16T02:02:55.567Z,109.70
2023-04-16T02:03:55.588Z,111.60
2023-04-16T02:04:55.484Z,114.40
2023-04-16T02:05:55.408Z,106.20
2023-04-16T02:06:55.473Z,113.00
2023-04-16T02:07:55.383Z,90.50
2023-04-16T02:08:55.418Z,97.90
2023-04-16T02:09:55.402Z,96.40
2023-04-16T02:10:55.396Z,91.20
2023-04-16T02:11:55.324Z,82.00
2023-04-16T02:12:55.382Z,77.40
2023-04-16T02:13:55.330Z,83.00
2023-04-16T02:14:55.315Z,86.00
2023-04-16T02:15:55.311Z,82.70
2023-04-16T02:16:55.430Z,81.20
2023-04-16T02:17:55.282Z,80.50
2023-04-16T02:18:55.280Z,79.70
2023-04-16T02:19:55.239Z,77.40
2023-04-16T02:20:55.253Z,78.20
2023-04-16T02:21:55.213Z,77.90
2023-04-16T02:22:55.276Z,75.60
2023-04-16T02:23:55.180Z,76.80
2023-04-16T02:24:55.185Z,74.70
2023-04-16T02:25:55.169Z,69.90
2023-04-16T02:26:55.170Z,71.00
2023-04-16T02:27:55.134Z,67.80
2023-04-16T02:28:55.179Z,54.00
2023-04-16T02:29:55.079Z,62.20
2023-04-16T02:30:55.118Z,67.50
2023-04-16T02:31:55.104Z,68.90
2023-04-16T02:32:55.135Z,75.10
2023-04-16T02:33:55.079Z,67.30
2023-04-16T02:34:55.238Z,67.20
2023-04-16T02:35:55.021Z,76.80
2023-04-16T02:36:55.018Z,84.70
2023-04-16T02:37:54.975Z,67.00
2023-04-16T02:38:55.012Z,76.60
2023-04-16T02:39:54.944Z,84.60
2023-04-16T02:40:55.029Z,82.10
2023-04-16T02:41:54.945Z,86.50
2023-04-16T02:42:54.937Z,92.20
2023-04-16T02:43:54.923Z,86.60
2023-04-16T02:44:54.905Z,87.00
2023-04-16T02:45:54.924Z,84.90
2023-04-16T02:46:54.979Z,85.40
2023-04-16T02:47:54.876Z,88.30
2023-04-16T02:48:54.904Z,90.30
2023-04-16T02:49:54.844Z,93.60
2023-04-16T02:50:54.830Z,92.00
2023-04-16T02:51:54.815Z,86.60
2023-04-16T02:52:54.933Z,83.10
2023-04-16T02:53:54.777Z,86.80
2023-04-16T02:54:54.803Z,86.30
2023-04-16T02:55:54.733Z,91.30
2023-04-16T02:56:54.789Z,85.80
2023-04-16T02:57:54.733Z,83.40
2023-04-16T02:58:54.761Z,84.50
2023-04-16T02:59:54.717Z,80.00
2023-04-16T03:00:54.791Z,80.80
2023-04-16T03:01:54.772Z,81.40
2023-04-16T03:02:54.862Z,77.10
2023-04-16T03:03:54.691Z,80.50
2023-04-16T03:04:54.688Z,83.70
2023-04-16T03:05:54.628Z,80.90
2023-04-16T03:06:54.642Z,81.90
2023-04-16T03:07:54.572Z,85.50
2023-04-16T03:08:54.611Z,88.90
2023-04-16T03:09:54.572Z,92.90
2023-04-16T03:10:54.616Z,93.40
2023-04-16T03:11:54.548Z,95.80
2023-04-16T03:12:54.553Z,100.30
2023-04-16T03:13:54.494Z,99.40
2023-04-16T03:14:54.534Z,100.20
2023-04-16T03:15:54.595Z,102.90
2023-04-16T03:16:54.525Z,101.40
2023-04-16T03:17:54.460Z,103.80
2023-04-16T03:18:54.480Z,100.10
2023-04-16T03:19:54.427Z,101.90
2023-04-16T03:20:54.450Z,106.40
2023-04-16T03:21:54.415Z,110.10
2023-04-16T03:22:54.521Z,107.80
2023-04-16T03:23:54.387Z,102.30
2023-04-16T03:24:54.380Z,105.20
2023-04-16T03:25:54.370Z,102.00
2023-04-16T03:26:54.389Z,105.10
2023-04-16T03:27:54.307Z,79.90
2023-04-16T03:28:54.401Z,83.00
2023-04-16T03:29:55.055Z,88.00
2023-04-16T03:30:54.341Z,97.90
2023-04-16T03:31:54.261Z,100.30
2023-04-16T03:32:54.323Z,98.70
2023-04-16T03:33:54.249Z,98.10
2023-04-16T03:34:54.280Z,97.30
2023-04-16T03:35:54.233Z,100.70
2023-04-16T03:36:54.227Z,103.20
2023-04-16T03:37:54.177Z,100.20
2023-04-16T03:38:54.212Z,101.30
2023-04-16T03:39:54.176Z,106.90
2023-04-16T03:40:54.231Z,101.50
2023-04-16T03:41:54.157Z,93.20
2023-04-16T03:42:54.156Z,98.00
2023-04-16T03:43:54.128Z,98.90
2023-04-16T03:44:54.112Z,98.10
2023-04-16T03:45:54.099Z,94.70
2023-04-16T03:46:54.202Z,99.10
2023-04-16T03:47:54.121Z,99.40
2023-04-16T03:48:54.057Z,99.90
2023-04-16T03:49:54.045Z,100.90
2023-04-16T03:50:54.033Z,99.80
2023-04-16T03:51:54.039Z,103.80
2023-04-16T03:52:54.128Z,101.50
2023-04-16T03:53:54.011Z,102.90
2023-04-16T03:54:53.950Z,102.60
2023-04-16T03:55:54.016Z,99.90
2023-04-16T03:56:53.920Z,99.20
2023-04-16T03:57:53.937Z,102.10
2023-04-16T03:58:53.979Z,106.90
2023-04-16T03:59:53.915Z,104.20
2023-04-16T04:00:53.901Z,100.10
2023-04-16T04:01:53.976Z,94.60
2023-04-16T04:02:53.998Z,98.90
2023-04-16T04:03:54.015Z,99.70
2023-04-16T04:04:53.918Z,101.90
2023-04-16T04:05:53.859Z,108.30
2023-04-16T04:06:53.792Z,104.90
2023-04-16T04:07:53.848Z,108.40
2023-04-16T04:08:53.772Z,106.00
2023-04-16T04:09:53.781Z,105.30
2023-04-16T04:10:53.795Z,109.60
2023-04-16T04:11:53.776Z,105.00
2023-04-16T04:12:53.734Z,110.90
2023-04-16T04:13:53.751Z,114.20
2023-04-16T04:14:53.715Z,111.70
2023-04-16T04:15:53.776Z,104.70
2023-04-16T04:16:53.685Z,112.60
2023-04-16T04:17:53.711Z,110.40
2023-04-16T04:18:53.685Z,108.70
2023-04-16T04:20:00.937Z,108.90
2023-04-16T04:20:54.607Z,113.40
2023-04-16T04:21:53.649Z,107.60
2023-04-16T04:22:53.634Z,109.00
2023-04-16T04:23:55.632Z,108.40
2023-04-16T04:24:53.602Z,103.50
2023-04-16T04:25:53.675Z,101.70
2023-04-16T04:26:53.530Z,99.90
2023-04-16T04:27:53.561Z,97.50
2023-04-16T04:28:53.527Z,102.40
2023-04-16T04:29:53.526Z,86.40
2023-04-16T04:30:53.514Z,82.70
2023-04-16T04:31:53.590Z,82.80
2023-04-16T04:32:53.543Z,81.90
2023-04-16T04:33:53.497Z,80.90
2023-04-16T04:34:53.471Z,85.80
2023-04-16T04:35:53.453Z,85.50
2023-04-16T04:36:53.428Z,80.50
2023-04-16T04:37:53.455Z,77.80
2023-04-16T04:38:53.381Z,77.50
2023-04-16T04:39:53.428Z,81.10
2023-04-16T04:40:53.460Z,82.60
2023-04-16T04:41:53.376Z,76.30
2023-04-16T04:42:53.349Z,78.50
2023-04-16T04:43:53.338Z,79.50
2023-04-16T04:44:53.326Z,82.40
2023-04-16T04:45:53.384Z,85.10
2023-04-16T04:46:53.310Z,85.10
2023-04-16T04:47:53.363Z,83.80
2023-04-16T04:48:53.254Z,80.70
2023-04-16T04:49:53.256Z,82.70
2023-04-16T04:50:53.251Z,80.20
2023-04-16T04:51:53.247Z,82.30
2023-04-16T04:52:53.337Z,77.90
2023-04-16T04:53:53.241Z,77.60
2023-04-16T04:54:53.203Z,70.80
2023-04-16T04:55:55.614Z,71.10
2023-04-16T04:56:54.138Z,76.10
2023-04-16T04:57:53.175Z,75.30
2023-04-16T04:58:53.170Z,76.00
2023-04-16T04:59:53.119Z,76.50
2023-04-16T05:00:53.143Z,74.90
2023-04-16T05:01:53.149Z,74.40
2023-04-16T05:02:53.112Z,71.30
2023-04-16T05:03:53.119Z,77.40
2023-04-16T05:04:53.156Z,71.80
2023-04-16T05:05:53.080Z,72.70
2023-04-16T05:06:53.028Z,72.00
2023-04-16T05:07:53.046Z,74.10
2023-04-16T05:08:52.990Z,70.90
2023-04-16T05:09:52.989Z,62.40
2023-04-16T05:10:53.091Z,66.70
2023-04-16T05:11:52.995Z,65.20
2023-04-16T05:12:52.938Z,73.30
2023-04-16T05:13:52.965Z,72.70
2023-04-16T05:14:52.924Z,75.20
2023-04-16T05:15:52.988Z,77.60
2023-04-16T05:16:53.032Z,78.40
2023-04-16T05:17:52.939Z,75.00
2023-04-16T05:18:52.871Z,69.40
2023-04-16T05:19:52.872Z,74.20
2023-04-16T05:20:52.835Z,79.00
2023-04-16T05:21:52.903Z,66.90
2023-04-16T05:22:52.905Z,51.20
2023-04-16T05:23:52.833Z,58.60
2023-04-16T05:24:52.793Z,64.90
2023-04-16T05:25:52.814Z,70.20
2023-04-16T05:26:52.736Z,69.50
2023-04-16T05:27:52.776Z,61.90
2023-04-16T05:28:52.755Z,63.60
2023-04-16T05:29:52.720Z,65.00
2023-04-16T05:30:52.753Z,66.90
2023-04-16T05:31:52.709Z,66.20
2023-04-16T05:32:52.756Z,75.00
2023-04-16T05:33:52.699Z,67.20
2023-04-16T05:34:52.666Z,71.10
2023-04-16T05:35:52.668Z,70.00
2023-04-16T05:36:52.595Z,66.20
2023-04-16T05:37:52.629Z,64.90
2023-04-16T05:38:52.612Z,61.90
2023-04-16T05:39:52.618Z,62.40
2023-04-16T05:40:52.719Z,68.60
2023-04-16T05:41:52.558Z,64.80
2023-04-16T05:42:52.560Z,63.90
2023-04-16T05:43:56.780Z,62.60
2023-04-16T05:44:52.515Z,59.50
2023-04-16T05:45:52.552Z,61.70
2023-04-16T05:46:52.522Z,62.00
2023-04-16T05:47:52.514Z,63.60
2023-04-16T05:48:52.436Z,60.20
2023-04-16T05:49:52.456Z,59.10
2023-04-16T05:50:52.460Z,61.20
2023-04-16T05:51:53.149Z,60.90
2023-04-16T05:52:52.554Z,59.00
2023-04-16T05:53:52.420Z,60.10
2023-04-16T05:54:52.364Z,60.50
2023-04-16T05:55:52.397Z,61.00
2023-04-16T05:56:52.341Z,64.50
2023-04-16T05:57:52.347Z,61.80
2023-04-16T05:58:52.389Z,58.70
2023-04-16T05:59:52.318Z,61.40
2023-04-16T06:00:52.315Z,59.00
2023-04-16T06:01:52.335Z,58.90
2023-04-16T06:02:52.378Z,63.20
2023-04-16T06:03:52.375Z,59.90
2023-04-16T06:04:52.261Z,60.90
2023-04-16T06:05:52.308Z,54.60
2023-04-16T06:06:52.238Z,57.70
2023-04-16T06:07:52.231Z,53.50
2023-04-16T06:08:52.195Z,59.70
2023-04-16T06:09:52.232Z,59.80
2023-04-16T06:10:52.176Z,60.80
2023-04-16T06:11:52.215Z,63.00
2023-04-16T06:12:52.152Z,60.70
2023-04-16T06:13:52.165Z,60.50
2023-04-16T06:14:52.104Z,63.80
2023-04-16T06:15:52.137Z,61.00
2023-04-16T06:16:52.094Z,61.50
2023-04-16T06:17:52.114Z,60.40
2023-04-16T06:18:52.062Z,61.80
2023-04-16T06:19:52.058Z,59.60
2023-04-16T06:20:52.030Z,57.90
2023-04-16T06:21:52.086Z,62.20
2023-04-16T06:22:52.025Z,63.60
2023-04-16T06:23:52.026Z,61.20
2023-04-16T06:24:51.954Z,57.20
2023-04-16T06:25:51.985Z,60.70
2023-04-16T06:26:51.956Z,59.40
2023-04-16T06:27:53.046Z,60.80
2023-04-16T06:28:51.957Z,56.60
2023-04-16T06:29:51.914Z,57.00
2023-04-16T06:30:51.920Z,56.50
2023-04-16T06:31:51.992Z,55.70
2023-04-16T06:32:51.884Z,53.40
2023-04-16T06:33:51.883Z,53.50
2023-04-16T06:34:51.860Z,55.70
2023-04-16T06:35:51.857Z,52.30
2023-04-16T06:36:51.805Z,54.10
2023-04-16T06:37:51.831Z,54.50
2023-04-16T06:38:51.873Z,56.60
2023-04-16T06:39:51.811Z,58.90
2023-04-16T06:40:51.891Z,52.60
2023-04-16T06:41:51.780Z,50.40
2023-04-16T06:42:51.713Z,50.40
2023-04-16T06:43:51.730Z,51.50
2023-04-16T06:44:51.735Z,52.20
2023-04-16T06:45:51.718Z,51.20
2023-04-16T06:46:51.749Z,49.90
2023-04-16T06:47:51.771Z,53.10
2023-04-16T06:48:51.634Z,51.60
2023-04-16T06:49:51.637Z,51.10
2023-04-16T06:50:51.654Z,50.80
2023-04-16T06:51:51.607Z,50.10
2023-04-16T06:52:51.784Z,51.00
2023-04-16T06:53:51.646Z,49.80
2023-04-16T06:54:51.560Z,50.10
2023-04-16T06:55:51.587Z,49.40
2023-04-16T06:56:51.518Z,48.70
2023-04-16T06:57:51.536Z,48.50
2023-04-16T06:58:51.642Z,48.50
2023-04-16T06:59:51.533Z,49.80
2023-04-16T07:00:51.549Z,50.20
2023-04-16T07:01:51.591Z,49.90
2023-04-16T07:02:51.627Z,48.60
2023-04-16T07:03:51.676Z,52.60
2023-04-16T07:04:51.466Z,49.70
2023-04-16T07:05:51.465Z,49.10
2023-04-16T07:06:51.416Z,48.50
2023-04-16T07:07:51.411Z,51.10
2023-04-16T07:08:51.434Z,54.10
2023-04-16T07:09:51.409Z,50.80
2023-04-16T07:10:51.352Z,50.30
2023-04-16T07:11:51.401Z,48.90
2023-04-16T07:12:51.311Z,48.60
2023-04-16T07:13:51.331Z,48.70
2023-04-16T07:14:51.320Z,51.10
2023-04-16T07:15:51.321Z,51.00
2023-04-16T07:16:51.390Z,48.20
2023-04-16T07:17:51.336Z,46.70
2023-04-16T07:18:51.257Z,47.10
2023-04-16T07:19:51.244Z,47.20
2023-04-16T07:20:51.254Z,46.20
2023-04-16T07:21:51.242Z,46.80
2023-04-16T07:22:51.293Z,48.20
2023-04-16T07:23:51.262Z,46.50
2023-04-16T07:24:51.155Z,45.90
2023-04-16T07:25:51.173Z,46.30
2023-04-16T07:26:51.152Z,46.10
2023-04-16T07:27:51.161Z,46.40
2023-04-16T07:28:51.248Z,47.40
2023-04-16T07:29:51.143Z,46.90
2023-04-16T07:30:51.059Z,48.60
2023-04-16T07:31:51.103Z,45.50
2023-04-16T07:32:51.106Z,45.70
2023-04-16T07:33:51.088Z,44.20
2023-04-16T07:34:51.064Z,44.40
2023-04-16T07:35:51.049Z,46.00
2023-04-16T07:36:51.049Z,43.30
2023-04-16T07:37:51.012Z,43.00
2023-04-16T07:38:50.992Z,43.90
2023-04-16T07:39:50.983Z,42.60
2023-04-16T07:40:50.980Z,44.30
2023-04-16T07:41:50.983Z,42.60
2023-04-16T07:42:50.917Z,42.90
2023-04-16T07:43:50.969Z,43.30
2023-04-16T07:44:50.886Z,43.10
2023-04-16T07:45:50.914Z,43.30
2023-04-16T07:46:50.979Z,42.90
2023-04-16T07:47:50.923Z,42.90
2023-04-16T07:48:50.831Z,43.30
2023-04-16T07:49:50.845Z,43.70
2023-04-16T07:50:50.846Z,43.80
2023-04-16T07:51:50.819Z,42.40
2023-04-16T07:52:50.924Z,40.40
2023-04-16T07:53:50.816Z,41.30
2023-04-16T07:54:50.765Z,40.70
2023-04-16T07:55:50.784Z,40.20
2023-04-16T07:56:50.706Z,40.00
2023-04-16T07:57:50.734Z,41.40
2023-04-16T07:58:50.834Z,40.80
2023-04-16T07:59:50.725Z,40.40
2023-04-16T08:00:51.040Z,42.70
2023-04-16T08:01:50.784Z,40.10
2023-04-16T08:02:50.883Z,40.80
2023-04-16T08:03:51.040Z,41.20
2023-04-16T08:04:50.976Z,40.30
2023-04-16T08:05:50.649Z,40.00
2023-04-16T08:06:50.635Z,39.00
2023-04-16T08:07:50.621Z,39.10
2023-04-16T08:08:50.602Z,41.70
2023-04-16T08:09:50.578Z,39.40
2023-04-16T08:10:50.638Z,39.50
2023-04-16T08:11:50.527Z,40.00
2023-04-16T08:12:50.581Z,41.40
2023-04-16T08:13:50.545Z,38.40
2023-04-16T08:14:50.502Z,39.90
2023-04-16T08:15:50.528Z,40.50
2023-04-16T08:16:50.630Z,40.90
2023-04-16T08:17:50.475Z,40.00
2023-04-16T08:18:50.490Z,41.60
2023-04-16T08:19:50.434Z,38.50
2023-04-16T08:20:50.442Z,38.70
2023-04-16T08:21:50.396Z,39.50
2023-04-16T08:22:50.549Z,39.20
2023-04-16T08:23:50.366Z,38.50
2023-04-16T08:24:50.402Z,39.00
2023-04-16T08:25:51.808Z,37.80
2023-04-16T08:26:50.369Z,36.40
2023-04-16T08:27:50.335Z,38.70
2023-04-16T08:28:50.447Z,38.60
2023-04-16T08:29:50.287Z,36.80
2023-04-16T08:30:50.335Z,37.80
2023-04-16T08:31:50.376Z,37.60
2023-04-16T08:32:50.613Z,37.70
2023-04-16T08:33:50.271Z,37.90
2023-04-16T08:34:50.292Z,36.70
2023-04-16T08:35:50.211Z,37.80
2023-04-16T08:36:50.269Z,36.10
2023-04-16T08:37:50.206Z,35.60
2023-04-16T08:38:50.242Z,37.80
2023-04-16T08:39:50.175Z,36.50
2023-04-16T08:40:50.335Z,35.90
2023-04-16T08:41:50.163Z,34.90
2023-04-16T08:42:50.161Z,35.70
2023-04-16T08:43:50.114Z,37.80
2023-04-16T08:44:50.129Z,36.30
2023-04-16T08:45:50.089Z,36.80
2023-04-16T08:46:50.206Z,37.10
2023-04-16T08:47:50.136Z,35.60
2023-04-16T08:48:50.074Z,36.10
2023-04-16T08:49:50.013Z,36.30
2023-04-16T08:50:50.052Z,37.60
2023-04-16T08:51:50.012Z,36.20
2023-04-16T08:52:50.037Z,35.00
2023-04-16T08:53:49.937Z,34.30
2023-04-16T08:54:56.714Z,35.40
2023-04-16T08:55:50.948Z,34.00
2023-04-16T08:56:49.961Z,36.00
2023-04-16T08:57:49.920Z,36.30
2023-04-16T08:58:50.046Z,35.70
2023-04-16T08:59:49.901Z,36.40
2023-04-16T09:00:49.916Z,35.90
2023-04-16T09:01:49.897Z,34.90
2023-04-16T09:02:50.220Z,34.00
2023-04-16T09:03:49.997Z,35.70
2023-04-16T09:04:49.892Z,35.90
2023-04-16T09:05:49.847Z,34.70
2023-04-16T09:06:49.812Z,33.60
2023-04-16T09:07:49.794Z,34.00
2023-04-16T09:08:49.784Z,36.00
2023-04-16T09:09:49.740Z,35.60
2023-04-16T09:10:49.916Z,34.20
2023-04-16T09:11:49.714Z,34.90
2023-04-16T09:12:49.746Z,34.90
2023-04-16T09:13:49.707Z,33.80
2023-04-16T09:14:49.728Z,36.00
2023-04-16T09:15:49.755Z,36.90
2023-04-16T09:16:49.700Z,36.10
2023-04-16T09:17:49.723Z,34.30
2023-04-16T09:18:49.681Z,34.30
2023-04-16T09:19:49.607Z,35.20
2023-04-16T09:20:49.639Z,33.90
2023-04-16T09:21:49.595Z,33.40
2023-04-16T09:22:49.616Z,33.50
2023-04-16T09:23:49.598Z,33.60
2023-04-16T09:24:49.593Z,35.70
2023-04-16T09:25:49.559Z,35.50
2023-04-16T09:26:53.801Z,35.30
2023-04-16T09:27:49.551Z,35.10
2023-04-16T09:28:49.524Z,33.00
2023-04-16T09:29:49.457Z,34.30
2023-04-16T09:30:49.503Z,34.90
2023-04-16T09:31:49.478Z,34.60
2023-04-16T09:32:49.516Z,34.30
2023-04-16T09:33:49.422Z,37.20
2023-04-16T09:34:49.426Z,37.60
2023-04-16T09:35:49.391Z,35.10
2023-04-16T09:36:49.364Z,35.60
2023-04-16T09:37:49.321Z,37.60
2023-04-16T09:38:49.384Z,36.90
2023-04-16T09:39:49.324Z,37.80
2023-04-16T09:40:49.343Z,35.90
2023-04-16T09:41:49.268Z,35.00
2023-04-16T09:42:49.315Z,35.80
2023-04-16T09:43:49.235Z,35.50
2023-04-16T09:44:49.280Z,36.10
2023-04-16T09:45:49.294Z,34.30
2023-04-16T09:46:49.262Z,35.40
2023-04-16T09:47:49.282Z,37.10
2023-04-16T09:48:49.201Z,38.60
2023-04-16T09:49:49.158Z,36.30
2023-04-16T09:50:49.197Z,37.20
2023-04-16T09:51:49.137Z,34.90
2023-04-16T09:52:49.258Z,36.10
2023-04-16T09:53:49.132Z,36.20
2023-04-16T09:54:49.123Z,35.60
2023-04-16T09:55:49.086Z,35.70
2023-04-16T09:56:49.111Z,34.80
2023-04-16T09:57:49.083Z,35.30
2023-04-16T09:58:49.092Z,34.70
2023-04-16T09:59:49.069Z,34.90
2023-04-16T10:00:49.041Z,35.00
2023-04-16T10:01:49.139Z,35.80
2023-04-16T10:02:50.618Z,35.00
2023-04-16T10:03:49.234Z,34.90
2023-04-16T10:04:49.074Z,35.50
2023-04-16T10:05:48.987Z,35.90
2023-04-16T10:06:48.957Z,35.40
2023-04-16T10:07:48.939Z,35.40
2023-04-16T10:08:50.265Z,35.00
2023-04-16T10:09:48.879Z,35.80
2023-04-16T10:10:48.950Z,37.20
2023-04-16T10:11:48.878Z,37.20
2023-04-16T10:12:48.896Z,36.40
2023-04-16T10:13:48.856Z,35.60
2023-04-16T10:14:50.291Z,34.70
2023-04-16T10:15:48.833Z,35.30
2023-04-16T10:16:48.966Z,35.00
2023-04-16T10:17:48.827Z,35.60
2023-04-16T10:18:48.818Z,34.50
2023-04-16T10:19:48.753Z,37.00
2023-04-16T10:20:48.794Z,36.70
2023-04-16T10:21:48.750Z,34.90
2023-04-16T10:22:48.779Z,36.10
2023-04-16T10:23:48.724Z,37.30
2023-04-16T10:24:48.719Z,34.90
2023-04-16T10:25:48.674Z,35.00
2023-04-16T10:26:48.713Z,33.50
2023-04-16T10:27:48.668Z,34.30
2023-04-16T10:28:48.678Z,33.20
2023-04-16T10:29:54.037Z,31.90
2023-04-16T10:30:49.334Z,31.30
2023-04-16T10:31:51.924Z,32.10
2023-04-16T10:32:49.258Z,31.70
2023-04-16T10:33:51.105Z,32.40
2023-04-16T10:34:52.565Z,32.70
2023-04-16T10:35:57.893Z,30.40
2023-04-16T10:36:50.008Z,30.70
2023-04-16T10:37:53.394Z,31.40
2023-04-16T10:38:52.818Z,30.90
2023-04-16T10:41:03.892Z,31.80
2023-04-16T10:42:11.520Z,32.00
2023-04-16T10:43:03.170Z,30.80
2023-04-16T10:44:01.322Z,31.70
2023-04-16T10:45:02.415Z,31.70
2023-04-16T10:46:02.455Z,31.00
2023-04-16T10:47:03.522Z,32.40
2023-04-16T10:48:01.985Z,30.50
2023-04-16T10:49:02.126Z,31.60
2023-04-16T10:50:06.572Z,29.50
2023-04-16T10:51:01.587Z,30.10
2023-04-16T10:53:16.489Z,29.30
2023-04-16T10:54:19.258Z,29.20
2023-04-16T10:55:15.563Z,28.40
2023-04-16T10:56:44.186Z,30.20
2023-04-16T10:57:35.021Z,30.20
2023-04-16T10:58:12.586Z,29.20
2023-04-16T10:59:18.270Z,28.80
2023-04-16T11:00:13.861Z,27.90
2023-04-16T11:01:13.522Z,28.70
2023-04-16T11:02:13.293Z,28.60
2023-04-16T11:03:13.100Z,29.00
2023-04-16T11:04:33.968Z,29.50
2023-04-16T11:05:12.859Z,29.50
2023-04-16T11:06:17.337Z,30.50
2023-04-16T11:07:17.733Z,30.00
2023-04-16T11:08:26.266Z,29.30
2023-04-16T11:09:12.840Z,28.40
2023-04-16T11:10:16.702Z,28.80
2023-04-16T11:11:13.388Z,28.70
2023-04-16T11:12:17.271Z,27.60
2023-04-16T11:13:13.335Z,29.40
2023-04-16T11:14:17.843Z,28.20
2023-04-16T11:15:17.753Z,27.60
2023-04-16T11:16:18.679Z,28.80
2023-04-16T11:17:13.228Z,28.00
2023-04-16T11:18:14.530Z,28.60
2023-04-16T11:19:14.581Z,27.90
2023-04-16T11:20:19.688Z,27.40
2023-04-16T11:21:14.279Z,28.00
2023-04-16T11:22:13.179Z,27.00
2023-04-16T11:23:12.258Z,26.90
2023-04-16T11:24:13.850Z,28.00
2023-04-16T11:25:18.057Z,27.20
2023-04-16T11:26:15.667Z,26.80
2023-04-16T11:27:18.629Z,26.50
2023-04-16T11:28:12.996Z,27.20
2023-04-16T11:29:12.511Z,27.70
2023-04-16T11:30:12.533Z,26.40
2023-04-16T11:31:18.558Z,26.90
2023-04-16T11:32:13.235Z,27.20
2023-04-16T11:33:13.042Z,29.70
2023-04-16T11:34:14.149Z,30.20
2023-04-16T11:35:16.353Z,31.60
2023-04-16T11:36:13.469Z,30.40
2023-04-16T11:37:12.855Z,31.40
2023-04-16T11:38:12.253Z,31.40
2023-04-16T11:39:22.245Z,31.70
2023-04-16T11:40:12.053Z,30.20
2023-04-16T11:41:12.006Z,30.00
2023-04-16T11:42:12.047Z,29.60
2023-04-16T11:43:11.992Z,31.90
2023-04-16T11:44:12.006Z,31.00
2023-04-16T11:45:11.933Z,31.10
2023-04-16T11:46:24.615Z,30.30
2023-04-16T11:47:12.926Z,31.50
2023-04-16T11:48:11.966Z,31.20
2023-04-16T11:49:12.160Z,31.80
2023-04-16T11:50:11.915Z,31.10
2023-04-16T11:51:11.840Z,30.00
2023-04-16T11:52:11.881Z,31.40
2023-04-16T11:53:11.839Z,31.00
2023-04-16T11:54:12.305Z,30.50
2023-04-16T11:55:11.810Z,32.80
2023-04-16T11:56:11.824Z,31.70
2023-04-16T11:57:11.757Z,33.10
2023-04-16T11:58:11.820Z,31.70
2023-04-16T11:59:11.970Z,30.50
2023-04-16T12:00:11.762Z,31.20
2023-04-16T12:01:11.721Z,31.40
2023-04-16T12:02:11.835Z,30.20
2023-04-16T12:03:11.918Z,30.30
2023-04-16T12:04:11.923Z,31.80
2023-04-16T12:05:11.695Z,31.80
2023-04-16T12:06:11.686Z,30.50
2023-04-16T12:07:11.689Z,31.10
2023-04-16T12:08:11.682Z,30.40
2023-04-16T12:09:11.726Z,30.90
2023-04-16T12:10:11.687Z,30.70
2023-04-16T12:11:11.557Z,30.80
2023-04-16T12:12:11.597Z,32.00
2023-04-16T12:13:11.564Z,32.90
2023-04-16T12:14:11.603Z,31.90
2023-04-16T12:15:11.564Z,29.50
2023-04-16T12:16:11.572Z,30.90
2023-04-16T12:17:11.527Z,32.30
2023-04-16T12:18:11.560Z,32.20
2023-04-16T12:19:11.647Z,30.70
2023-04-16T12:20:11.594Z,29.90
2023-04-16T12:21:11.841Z,30.10
2023-04-16T12:22:11.452Z,29.50
2023-04-16T12:23:11.679Z,29.50
2023-04-16T12:24:11.452Z,29.80
2023-04-16T12:25:11.401Z,29.80
2023-04-16T12:26:11.714Z,31.10
2023-04-16T12:27:11.369Z,29.70
2023-04-16T12:28:11.383Z,29.00
2023-04-16T12:29:11.430Z,28.00
2023-04-16T12:30:11.390Z,30.70
2023-04-16T12:31:11.337Z,30.50
2023-04-16T12:32:11.433Z,27.80
2023-04-16T12:33:11.340Z,28.50
2023-04-16T12:34:11.274Z,27.60
2023-04-16T12:35:11.290Z,28.40
2023-04-16T12:36:11.263Z,28.40
2023-04-16T12:37:11.211Z,27.70
2023-04-16T12:38:11.285Z,27.50
2023-04-16T12:39:11.447Z,27.60
2023-04-16T12:40:11.413Z,27.70
2023-04-16T12:41:11.173Z,27.50
2023-04-16T12:42:11.185Z,27.30
2023-04-16T12:43:11.166Z,26.30
2023-04-16T12:44:11.164Z,26.50
2023-04-16T12:45:11.123Z,25.60
2023-04-16T12:46:11.198Z,26.00
2023-04-16T12:47:11.081Z,26.00
2023-04-16T12:48:11.121Z,26.80
2023-04-16T12:49:11.388Z,25.60
2023-04-16T12:50:11.175Z,26.50
2023-04-16T12:51:11.061Z,26.30
2023-04-16T12:52:11.054Z,25.70